createdAt,value
2022-09-17T00:01:14.380Z,10.10
2022-09-17T00:03:41.363Z,10.20
2022-09-17T00:06:10.941Z,10.10
2022-09-17T00:08:39.897Z,10.00
2022-09-17T00:11:25.411Z,10.10
2022-09-17T00:13:53.121Z,10.00
2022-09-17T00:16:38.879Z,10.10
2022-09-17T00:19:09.188Z,10.10
2022-09-17T00:21:36.759Z,10.10
2022-09-17T00:24:06.822Z,10.10
2022-09-17T00:26:35.340Z,10.20
2022-09-17T00:29:02.277Z,10.20
2022-09-17T00:31:30.465Z,10.30
2022-09-17T00:33:59.241Z,10.30
2022-09-17T00:36:26.400Z,10.30
2022-09-17T00:38:55.287Z,10.30
2022-09-17T00:41:24.274Z,10.20
2022-09-17T00:44:00.670Z,10.40
2022-09-17T00:46:38.963Z,10.30
2022-09-17T00:49:15.054Z,10.30
2022-09-17T00:51:57.038Z,10.30
2022-09-17T00:54:26.851Z,10.30
2022-09-17T00:56:53.988Z,10.30
2022-09-17T00:59:22.790Z,10.30
2022-09-17T01:01:50.124Z,10.30
2022-09-17T01:04:23.986Z,10.40
2022-09-17T01:07:14.106Z,10.30
2022-09-17T01:09:52.755Z,10.40
2022-09-17T01:12:31.545Z,10.30
2022-09-17T01:15:07.337Z,10.40
2022-09-17T01:18:10.900Z,10.50
2022-09-17T01:21:22.425Z,10.50
2022-09-17T01:24:09.174Z,10.40
2022-09-17T01:27:13.018Z,10.50
2022-09-17T01:30:01.320Z,10.40
2022-09-17T01:32:40.220Z,10.50
2022-09-17T01:35:13.176Z,10.50
2022-09-17T01:37:53.128Z,10.50
2022-09-17T01:40:47.026Z,10.40
2022-09-17T01:43:21.446Z,10.50
2022-09-17T01:46:10.874Z,10.70
2022-09-17T01:48:44.490Z,10.60
2022-09-17T01:51:16.347Z,10.50
2022-09-17T01:54:04.872Z,10.50
2022-09-17T01:56:40.351Z,10.50
2022-09-17T01:59:32.674Z,10.50
2022-09-17T02:02:15.843Z,10.50
2022-09-17T02:04:46.752Z,10.50
2022-09-17T02:07:20.998Z,10.50
2022-09-17T02:09:54.128Z,10.60
2022-09-17T02:12:33.688Z,10.50
2022-09-17T02:15:03.634Z,10.50
2022-09-17T02:17:50.741Z,10.60
2022-09-17T02:20:22.780Z,10.50
2022-09-17T02:23:01.903Z,10.50
2022-09-17T02:25:38.835Z,10.40
2022-09-17T02:28:19.735Z,10.40
2022-09-17T02:30:46.666Z,10.50
2022-09-17T02:33:15.637Z,10.50
2022-09-17T02:35:44.084Z,10.40
2022-09-17T02:38:11.094Z,10.40
2022-09-17T02:40:46.492Z,10.40
2022-09-17T02:43:40.903Z,10.50
2022-09-17T02:46:32.587Z,10.40
2022-09-17T02:49:28.990Z,10.40
2022-09-17T02:52:21.383Z,10.30
2022-09-17T02:54:57.363Z,10.30
2022-09-17T02:57:40.444Z,10.30
2022-09-17T03:00:16.971Z,10.30
2022-09-17T03:03:05.315Z,10.30
2022-09-17T03:05:32.788Z,10.30
2022-09-17T03:08:00.198Z,10.30
2022-09-17T03:10:33.817Z,10.20
2022-09-17T03:13:00.953Z,10.20
2022-09-17T03:15:28.452Z,10.30
2022-09-17T03:17:55.567Z,10.20
2022-09-17T03:20:22.408Z,10.30
2022-09-17T03:22:49.223Z,10.30
2022-09-17T03:25:16.179Z,10.30
2022-09-17T03:27:43.045Z,10.30
2022-09-17T03:30:10.239Z,10.40
2022-09-17T03:32:37.115Z,10.30
2022-09-17T03:35:04.041Z,10.40
2022-09-17T03:37:33.168Z,10.40
2022-09-17T03:40:00.392Z,10.40
2022-09-17T03:42:27.409Z,10.40
2022-09-17T03:44:54.207Z,10.50
2022-09-17T03:47:21.075Z,10.40
2022-09-17T03:49:48.007Z,10.50
2022-09-17T03:52:14.809Z,10.40
2022-09-17T03:54:41.642Z,10.40
2022-09-17T03:57:08.502Z,10.40
2022-09-17T03:59:36.256Z,10.40
2022-09-17T04:02:03.243Z,10.50
2022-09-17T04:04:30.116Z,10.50
2022-09-17T04:06:57.130Z,10.50
2022-09-17T04:09:24.031Z,10.50
2022-09-17T04:11:50.870Z,10.50
2022-09-17T04:14:17.753Z,10.50
2022-09-17T04:16:44.903Z,10.50
2022-09-17T04:19:11.677Z,10.50
2022-09-17T04:21:38.638Z,10.40
2022-09-17T04:24:05.767Z,10.50
2022-09-17T04:26:32.645Z,10.50
2022-09-17T04:28:59.507Z,10.50
2022-09-17T04:31:27.248Z,10.50
2022-09-17T04:33:54.284Z,10.60
2022-09-17T04:36:21.085Z,10.50
2022-09-17T04:38:51.142Z,10.50
2022-09-17T04:41:18.149Z,10.50
2022-09-17T04:43:45.210Z,10.50
2022-09-17T04:46:13.736Z,10.50
2022-09-17T04:48:40.602Z,10.40
2022-09-17T04:51:07.489Z,10.40
2022-09-17T04:53:34.397Z,10.40
2022-09-17T04:56:01.396Z,10.40
2022-09-17T04:58:31.067Z,10.40
2022-09-17T05:00:58.031Z,10.40
2022-09-17T05:03:25.018Z,10.40
2022-09-17T05:05:51.820Z,10.40
2022-09-17T05:08:18.724Z,10.40
2022-09-17T05:10:45.664Z,10.30
2022-09-17T05:13:12.479Z,10.30
2022-09-17T05:15:39.298Z,10.40
2022-09-17T05:18:06.242Z,10.40
2022-09-17T05:20:33.202Z,10.40
2022-09-17T05:23:00.086Z,10.30
2022-09-17T05:25:27.244Z,10.50
2022-09-17T05:27:54.872Z,10.40
2022-09-17T05:30:22.168Z,10.40
2022-09-17T05:32:49.480Z,10.40
2022-09-17T05:35:16.469Z,10.40
2022-09-17T05:37:43.378Z,10.40
2022-09-17T05:40:10.547Z,10.40
2022-09-17T05:42:37.588Z,10.50
2022-09-17T05:45:05.672Z,10.50
2022-09-17T05:47:32.567Z,10.60
2022-09-17T05:49:59.692Z,10.60
2022-09-17T05:52:29.793Z,10.60
2022-09-17T05:54:57.100Z,10.70
2022-09-17T05:57:24.595Z,10.70
2022-09-17T05:59:51.492Z,10.70
2022-09-17T06:02:18.615Z,10.80
2022-09-17T06:04:46.189Z,10.80
2022-09-17T06:07:13.220Z,10.80
2022-09-17T06:09:41.163Z,10.80
2022-09-17T06:12:08.479Z,10.80
2022-09-17T06:14:35.381Z,11.00
2022-09-17T06:17:02.245Z,11.00
2022-09-17T06:19:29.153Z,11.00
2022-09-17T06:21:56.176Z,11.10
2022-09-17T06:24:23.088Z,11.20
2022-09-17T06:26:49.956Z,11.30
2022-09-17T06:29:16.889Z,11.30
2022-09-17T06:31:44.926Z,11.30
2022-09-17T06:34:12.458Z,11.30
2022-09-17T06:36:39.417Z,11.30
2022-09-17T06:39:06.863Z,11.40
2022-09-17T06:41:33.987Z,11.50
2022-09-17T06:44:02.194Z,11.50
2022-09-17T06:46:29.367Z,11.70
2022-09-17T06:48:56.450Z,11.80
2022-09-17T06:51:23.596Z,11.80
2022-09-17T06:53:50.594Z,11.70
2022-09-17T06:56:18.002Z,11.80
2022-09-17T06:58:44.847Z,11.90
2022-09-17T07:01:13.326Z,12.00
2022-09-17T07:03:43.180Z,12.10
2022-09-17T07:06:10.990Z,12.20
2022-09-17T07:08:38.446Z,12.30
2022-09-17T07:11:05.978Z,12.40
2022-09-17T07:13:32.882Z,12.50
2022-09-17T07:16:02.677Z,12.40
2022-09-17T07:18:30.065Z,12.20
2022-09-17T07:21:02.670Z,12.20
2022-09-17T07:23:34.640Z,12.20
2022-09-17T07:26:07.320Z,12.10
2022-09-17T07:28:35.107Z,12.10
2022-09-17T07:31:06.441Z,12.00
2022-09-17T07:33:35.408Z,12.00
2022-09-17T07:36:04.718Z,12.00
2022-09-17T07:38:31.823Z,11.90
2022-09-17T07:41:04.286Z,12.00
2022-09-17T07:43:34.198Z,12.00
2022-09-17T07:46:02.980Z,12.00
2022-09-17T07:48:30.516Z,12.00
2022-09-17T07:50:57.878Z,11.90
2022-09-17T07:53:25.401Z,12.00
2022-09-17T07:56:01.510Z,11.90
2022-09-17T07:58:34.320Z,11.90
2022-09-17T08:01:04.160Z,11.90
2022-09-17T08:03:31.310Z,11.90
2022-09-17T08:06:20.129Z,12.00
2022-09-17T08:08:47.664Z,12.00
2022-09-17T08:11:51.682Z,12.10
2022-09-17T08:14:14.622Z,12.20
2022-09-17T08:16:41.680Z,12.20
2022-09-17T08:19:11.054Z,12.20
2022-09-17T08:21:38.048Z,12.20
2022-09-17T08:24:05.257Z,12.20
2022-09-17T08:26:32.744Z,12.30
2022-09-17T08:29:00.183Z,12.60
2022-09-17T08:31:30.181Z,12.80
2022-09-17T08:33:57.944Z,12.90
2022-09-17T08:36:26.394Z,13.00
2022-09-17T08:38:55.022Z,13.20
2022-09-17T08:41:40.222Z,13.30
2022-09-17T08:44:25.372Z,13.40
2022-09-17T08:47:06.276Z,13.50
2022-09-17T08:49:44.742Z,13.90
2022-09-17T08:52:30.141Z,13.70
2022-09-17T08:55:03.432Z,13.70
2022-09-17T08:57:46.067Z,13.80
2022-09-17T09:00:16.903Z,13.90
2022-09-17T09:03:21.475Z,14.00
2022-09-17T09:05:52.593Z,14.00
2022-09-17T09:08:45.727Z,14.00
2022-09-17T09:11:26.611Z,14.00
2022-09-17T09:14:23.364Z,14.10
2022-09-17T09:16:53.526Z,14.00
2022-09-17T09:19:30.279Z,14.10
2022-09-17T09:22:19.144Z,14.40
2022-09-17T09:25:13.414Z,14.40
2022-09-17T09:27:49.741Z,14.60
2022-09-17T09:30:19.228Z,14.70
2022-09-17T09:33:00.226Z,14.70
2022-09-17T09:35:37.021Z,14.80
2022-09-17T09:38:10.078Z,14.80
2022-09-17T09:40:36.894Z,14.80
2022-09-17T09:43:15.037Z,14.60
2022-09-17T09:45:45.027Z,14.40
2022-09-17T09:48:37.934Z,14.30
2022-09-17T09:51:16.834Z,14.40
2022-09-17T09:53:52.720Z,14.50
2022-09-17T09:56:19.472Z,14.70
2022-09-17T09:58:46.295Z,14.80
2022-09-17T10:01:20.702Z,14.50
2022-09-17T10:03:49.612Z,14.70
2022-09-17T10:06:18.279Z,14.70
2022-09-17T10:08:57.539Z,14.30
2022-09-17T10:11:26.781Z,14.20
2022-09-17T10:13:53.797Z,14.20
2022-09-17T10:16:26.308Z,14.20
2022-09-17T10:19:18.672Z,14.30
2022-09-17T10:21:46.570Z,14.50
2022-09-17T10:24:27.196Z,14.40
2022-09-17T10:27:02.791Z,14.60
2022-09-17T10:29:30.251Z,14.60
2022-09-17T10:31:58.720Z,14.70
2022-09-17T10:34:33.761Z,14.80
2022-09-17T10:37:00.671Z,15.10
2022-09-17T10:39:27.599Z,14.90
2022-09-17T10:42:03.139Z,15.20
2022-09-17T10:44:34.851Z,15.40
2022-09-17T10:47:23.047Z,15.20
2022-09-17T10:50:16.462Z,15.40
2022-09-17T10:52:50.836Z,15.40
2022-09-17T10:55:41.383Z,15.00
2022-09-17T10:58:08.212Z,14.80
2022-09-17T11:01:05.135Z,14.40
2022-09-17T11:03:47.320Z,13.90
2022-09-17T11:06:22.101Z,14.00
2022-09-17T11:09:04.139Z,13.90
2022-09-17T11:12:04.857Z,14.40
2022-09-17T11:14:49.599Z,14.50
2022-09-17T11:17:28.530Z,14.80
2022-09-17T11:20:18.211Z,14.90
2022-09-17T11:23:23.857Z,14.60
2022-09-17T11:26:00.921Z,14.60
2022-09-17T11:29:06.844Z,14.80
2022-09-17T11:32:01.583Z,15.00
2022-09-17T11:34:37.855Z,15.30
2022-09-17T11:37:26.165Z,15.40
2022-09-17T11:40:04.522Z,15.10
2022-09-17T11:42:37.353Z,15.10
2022-09-17T11:45:14.342Z,15.40
2022-09-17T11:47:48.232Z,15.60
2022-09-17T11:50:23.786Z,15.60
2022-09-17T11:53:24.259Z,15.70
2022-09-17T11:56:06.330Z,15.90
2022-09-17T11:58:44.592Z,15.80
2022-09-17T12:01:26.937Z,15.60
2022-09-17T12:04:01.525Z,15.60
2022-09-17T12:06:43.977Z,15.50
2022-09-17T12:09:18.441Z,15.20
2022-09-17T12:11:57.686Z,14.70
2022-09-17T12:14:44.864Z,14.80
2022-09-17T12:17:22.962Z,14.60
2022-09-17T12:22:42.296Z,14.20
2022-09-17T12:25:13.667Z,14.10
2022-09-17T12:28:04.283Z,14.00
2022-09-17T12:30:50.624Z,13.90
2022-09-17T12:33:40.683Z,14.30
2022-09-17T12:36:10.521Z,15.00
2022-09-17T12:38:40.855Z,14.80
2022-09-17T12:41:40.702Z,14.80
2022-09-17T12:44:31.307Z,14.60
2022-09-17T12:47:38.436Z,14.60
2022-09-17T12:50:20.952Z,14.40
2022-09-17T12:53:25.303Z,13.60
2022-09-17T12:56:14.600Z,12.60
2022-09-17T12:58:57.068Z,12.20
2022-09-17T13:01:54.449Z,12.90
2022-09-17T13:05:00.938Z,13.60
2022-09-17T13:07:48.598Z,14.40
2022-09-17T13:10:40.935Z,15.00
2022-09-17T13:13:26.417Z,14.50
2022-09-17T13:16:13.348Z,14.90
2022-09-17T13:19:18.295Z,15.80
2022-09-17T13:21:56.557Z,15.50
2022-09-17T13:24:27.175Z,15.70
2022-09-17T13:26:55.255Z,16.10
2022-09-17T13:29:43.953Z,16.00
2022-09-17T13:32:36.989Z,16.70
2022-09-17T13:35:06.992Z,15.90
2022-09-17T13:37:37.722Z,15.80
2022-09-17T13:40:07.265Z,14.90
2022-09-17T13:42:47.015Z,15.60
2022-09-17T13:45:18.650Z,16.20
2022-09-17T13:48:05.943Z,16.20
2022-09-17T13:50:38.559Z,16.70
2022-09-17T13:53:17.302Z,16.10
2022-09-17T13:55:55.452Z,16.50
2022-09-17T13:58:26.888Z,16.70
2022-09-17T14:00:54.362Z,16.70
2022-09-17T14:03:44.524Z,16.10
2022-09-17T14:06:11.602Z,15.40
2022-09-17T14:08:44.858Z,14.70
2022-09-17T14:11:24.041Z,14.50
2022-09-17T14:14:02.972Z,14.10
2022-09-17T14:16:37.110Z,14.10
2022-09-17T14:19:16.552Z,14.00
2022-09-17T14:22:04.891Z,13.90
2022-09-17T14:24:37.719Z,14.40
2022-09-17T14:27:13.547Z,15.60
2022-09-17T14:30:04.857Z,15.90
2022-09-17T14:32:40.675Z,15.50
2022-09-17T14:35:20.788Z,16.20
2022-09-17T14:37:56.349Z,17.40
2022-09-17T14:40:24.415Z,18.80
2022-09-17T14:42:55.769Z,20.30
2022-09-17T14:45:43.213Z,20.90
2022-09-17T14:48:32.846Z,19.30
2022-09-17T14:51:32.248Z,19.10
2022-09-17T14:54:05.817Z,19.20
2022-09-17T14:56:48.906Z,18.70
2022-09-17T14:59:34.528Z,18.20
2022-09-17T15:02:01.532Z,17.10
2022-09-17T15:04:28.840Z,16.90
2022-09-17T15:07:12.043Z,16.50
2022-09-17T15:09:39.035Z,15.50
2022-09-17T15:12:07.933Z,15.30
2022-09-17T15:14:38.295Z,14.80
2022-09-17T15:17:06.993Z,14.70
2022-09-17T15:19:38.753Z,14.50
2022-09-17T15:22:21.184Z,14.40
2022-09-17T15:25:05.541Z,14.00
2022-09-17T15:27:45.278Z,14.00
2022-09-17T15:30:20.966Z,13.80
2022-09-17T15:33:00.542Z,13.80
2022-09-17T15:35:34.217Z,13.70
2022-09-17T15:38:23.203Z,13.70
2022-09-17T15:40:51.924Z,13.50
2022-09-17T15:43:23.509Z,13.50
2022-09-17T15:45:50.550Z,13.40
2022-09-17T15:48:38.183Z,13.10
2022-09-17T15:51:07.144Z,11.80
2022-09-17T15:53:35.578Z,11.00
2022-09-17T15:56:17.163Z,10.90
2022-09-17T15:58:46.980Z,11.10
2022-09-17T16:01:17.062Z,11.20
2022-09-17T16:03:44.344Z,11.10
2022-09-17T16:06:20.827Z,11.20
2022-09-17T16:08:56.093Z,10.90
2022-09-17T16:11:27.233Z,10.80
2022-09-17T16:13:56.601Z,10.90
2022-09-17T16:16:34.290Z,10.90
2022-09-17T16:19:01.757Z,10.90
2022-09-17T16:21:29.197Z,10.90
2022-09-17T16:23:58.169Z,10.90
2022-09-17T16:26:30.818Z,11.00
2022-09-17T16:29:05.105Z,11.10
2022-09-17T16:31:33.190Z,11.10
2022-09-17T16:34:00.792Z,11.20
2022-09-17T16:36:31.129Z,11.20
2022-09-17T16:38:58.800Z,11.20
2022-09-17T16:41:25.667Z,11.20
2022-09-17T16:43:52.689Z,11.10
2022-09-17T16:46:19.607Z,11.10
2022-09-17T16:48:50.227Z,11.10
2022-09-17T16:51:17.423Z,11.00
2022-09-17T16:53:44.455Z,11.00
2022-09-17T16:56:14.065Z,11.00
2022-09-17T16:58:41.908Z,11.00
2022-09-17T17:01:14.319Z,10.90
2022-09-17T17:03:41.889Z,11.00
2022-09-17T17:06:22.077Z,10.90
2022-09-17T17:08:49.272Z,10.90
2022-09-17T17:11:22.619Z,10.90
2022-09-17T17:13:49.650Z,10.90
2022-09-17T17:16:16.603Z,11.10
2022-09-17T17:18:44.272Z,11.10
2022-09-17T17:21:13.535Z,11.10
2022-09-17T17:23:43.585Z,11.20
2022-09-17T17:26:10.550Z,11.00
2022-09-17T17:28:37.955Z,10.90
2022-09-17T17:31:05.127Z,10.90
2022-09-17T17:33:32.064Z,10.90
2022-09-17T17:36:07.897Z,10.90
2022-09-17T17:38:35.767Z,10.90
2022-09-17T17:41:09.810Z,10.90
2022-09-17T17:43:37.732Z,10.80
2022-09-17T17:46:09.867Z,10.80
2022-09-17T17:48:37.328Z,10.70
2022-09-17T17:51:09.750Z,10.70
2022-09-17T17:53:37.045Z,10.70
2022-09-17T17:56:06.951Z,10.70
2022-09-17T17:58:34.434Z,10.70
2022-09-17T18:01:09.577Z,10.70
2022-09-17T18:03:36.610Z,10.70
2022-09-17T18:06:06.309Z,10.80
2022-09-17T18:08:37.042Z,10.80
2022-09-17T18:11:04.790Z,10.90
2022-09-17T18:13:32.054Z,10.80
2022-09-17T18:16:00.868Z,10.80
2022-09-17T18:18:38.799Z,10.70
2022-09-17T18:21:10.719Z,10.70
2022-09-17T18:23:39.900Z,10.70
2022-09-17T18:26:09.182Z,10.70
2022-09-17T18:28:37.076Z,10.80
2022-09-17T18:31:08.960Z,10.70
2022-09-17T18:33:36.288Z,10.70
2022-09-17T18:36:05.127Z,10.70
2022-09-17T18:38:32.979Z,10.90
2022-09-17T18:41:07.400Z,10.90
2022-09-17T18:43:35.004Z,10.90
2022-09-17T18:46:03.880Z,10.80
2022-09-17T18:48:36.176Z,10.80
2022-09-17T18:51:10.136Z,10.80
2022-09-17T18:53:38.506Z,10.80
2022-09-17T18:56:11.140Z,10.80
2022-09-17T18:58:38.090Z,10.80
2022-09-17T19:01:06.550Z,10.80
2022-09-17T19:03:34.637Z,10.80
2022-09-17T19:06:03.168Z,10.90
2022-09-17T19:08:30.314Z,10.90
2022-09-17T19:10:58.722Z,11.00
2022-09-17T19:13:26.754Z,11.10
2022-09-17T19:15:59.469Z,11.20
2022-09-17T19:18:27.076Z,11.20
2022-09-17T19:21:02.870Z,11.20
2022-09-17T19:23:31.697Z,11.30
2022-09-17T19:26:15.224Z,11.20
2022-09-17T19:28:42.124Z,11.30
2022-09-17T19:31:11.833Z,11.20
2022-09-17T19:33:39.415Z,11.30
2022-09-17T19:36:10.312Z,11.30
2022-09-17T19:38:37.519Z,11.20
2022-09-17T19:41:07.185Z,11.30
2022-09-17T19:43:34.215Z,11.20
2022-09-17T19:46:08.881Z,11.20
2022-09-17T19:48:36.340Z,11.20
2022-09-17T19:51:04.610Z,11.20
2022-09-17T19:53:34.335Z,11.20
2022-09-17T19:56:01.288Z,11.20
2022-09-17T19:58:28.199Z,11.30
2022-09-17T20:00:58.732Z,11.20
2022-09-17T20:03:26.676Z,11.20
2022-09-17T20:06:01.136Z,11.30
2022-09-17T20:08:28.168Z,11.30
2022-09-17T20:10:55.125Z,11.40
2022-09-17T20:13:23.285Z,11.30
2022-09-17T20:15:50.136Z,11.40
2022-09-17T20:18:22.593Z,11.40
2022-09-17T20:20:50.318Z,11.50
2022-09-17T20:23:17.148Z,11.40
2022-09-17T20:25:51.925Z,11.40
2022-09-17T20:28:19.087Z,11.40
2022-09-17T20:30:46.237Z,11.30
2022-09-17T20:33:13.523Z,11.40
2022-09-17T20:35:40.446Z,11.40
2022-09-17T20:41:00.093Z,11.40
2022-09-17T20:43:26.953Z,11.40
2022-09-17T20:45:57.482Z,11.30
2022-09-17T20:48:24.303Z,11.40
2022-09-17T20:51:08.778Z,11.40
2022-09-17T20:53:36.734Z,11.40
2022-09-17T20:56:09.005Z,11.40
2022-09-17T20:58:39.842Z,11.40
2022-09-17T21:01:13.599Z,11.30
2022-09-17T21:03:41.391Z,11.40
2022-09-17T21:06:08.272Z,11.50
2022-09-17T21:08:35.022Z,11.50
2022-09-17T21:11:05.733Z,11.40
2022-09-17T21:13:32.582Z,11.40
2022-09-17T21:16:00.971Z,11.40
2022-09-17T21:18:28.244Z,11.40
2022-09-17T21:20:55.496Z,11.40
2022-09-17T21:23:26.848Z,11.40
2022-09-17T21:26:05.452Z,11.30
2022-09-17T21:28:33.613Z,11.30
2022-09-17T21:31:10.431Z,11.30
2022-09-17T21:33:37.600Z,11.40
2022-09-17T21:36:13.964Z,11.40
2022-09-17T21:38:41.573Z,11.40
2022-09-17T21:41:14.030Z,11.40
2022-09-17T21:43:41.962Z,11.40
2022-09-17T21:46:11.640Z,11.40
2022-09-17T21:48:49.772Z,11.30
2022-09-17T21:51:18.139Z,11.30
2022-09-17T21:53:45.722Z,11.30
2022-09-17T21:56:17.543Z,11.30
2022-09-17T21:58:45.505Z,11.40
2022-09-17T22:01:15.225Z,11.50
2022-09-17T22:03:43.249Z,11.50
2022-09-17T22:06:18.600Z,11.40
2022-09-17T22:08:46.563Z,11.50
2022-09-17T22:11:16.596Z,11.40
2022-09-17T22:13:52.870Z,11.40
2022-09-17T22:16:19.763Z,11.30
2022-09-17T22:18:48.835Z,11.30
2022-09-17T22:21:21.061Z,11.30
2022-09-17T22:23:49.803Z,11.30
2022-09-17T22:26:18.005Z,11.30
2022-09-17T22:28:44.900Z,11.20
2022-09-17T22:31:12.997Z,11.30
2022-09-17T22:33:45.379Z,11.20
2022-09-17T22:36:15.037Z,11.30
2022-09-17T22:38:45.400Z,11.30
2022-09-17T22:41:24.731Z,11.30
2022-09-17T22:44:13.174Z,11.30
2022-09-17T22:46:40.812Z,11.20
2022-09-17T22:49:09.959Z,11.30
2022-09-17T22:51:37.212Z,11.20
2022-09-17T22:54:04.324Z,11.10
2022-09-17T22:56:31.287Z,11.20
2022-09-17T22:58:58.858Z,11.20
2022-09-17T23:01:29.216Z,11.20
2022-09-17T23:03:57.605Z,11.10
2022-09-17T23:06:27.690Z,11.20
2022-09-17T23:08:54.718Z,11.10
2022-09-17T23:11:25.245Z,11.10
2022-09-17T23:13:52.748Z,11.00
2022-09-17T23:16:20.095Z,11.10
2022-09-17T23:18:47.002Z,11.20
2022-09-17T23:21:16.801Z,11.20
2022-09-17T23:23:45.680Z,11.10
2022-09-17T23:26:15.830Z,11.10
2022-09-17T23:28:43.229Z,11.20
2022-09-17T23:31:15.615Z,11.10
2022-09-17T23:33:43.046Z,11.10
2022-09-17T23:36:16.562Z,11.20
2022-09-17T23:38:44.731Z,11.20
2022-09-17T23:41:26.562Z,11.20
2022-09-17T23:43:58.835Z,11.20
2022-09-17T23:46:27.934Z,11.30
2022-09-17T23:48:54.772Z,11.30
2022-09-17T23:51:23.249Z,11.20
2022-09-17T23:53:50.564Z,11.30
2022-09-17T23:56:21.300Z,11.30
2022-09-17T23:58:49.083Z,11.30
